Terminal Aerodrome Forecast
Issued by NWS

Home | Current Version | Previous Version | Text Only | Print | Product List | Glossary On
Versions: 1 2 3 4 5 6 7 8 9 10 11 12 13 14 15 16 17 18 19 20 21 22 23 24 25 26 27
779
FTUS44 KFWD 072050 AAB
TAFDAL
TAF AMD
KDAL 072050Z 0721/0818 20010KT P6SM FEW300
     FM072300 25010KT P6SM FEW300
     FM080000 33012KT P6SM SCT300
     FM080600 34020KT P6SM FEW300
     FM081500 32017G27KT P6SM FEW300=

USA.gov is the U.S. government's official web portal to all federal, state and local government web resources and services.